Time,TemperatureF,DewpointF,PressureIn,WindDirection,WindDirectionDegrees,WindSpeedMPH,WindSpeedGustMPH,Humidity,HourlyPrecipIn,Conditions,Clouds,dailyrainin,SolarRadiationWatts/m^2,SoftwareType,DateUTC
2013-11-02 00:28:00,38.5,37.2,29.58,South,178,5.0,5.0,95,0.00,,,0.00,0,Wunderground v.1.15,2013-11-02 00:28:00,
2013-11-02 00:59:00,38.6,37.3,29.56,South,179,5.0,6.0,95,0.00,,,0.00,0,Wunderground v.1.15,2013-11-02 00:59:00,
2013-11-02 01:28:00,39.4,38.1,29.55,South,178,6.0,6.0,95,0.00,,,0.00,0,Wunderground v.1.15,2013-11-02 01:28:00,
2013-11-02 01:59:00,39.4,37.8,29.53,South,185,5.0,5.0,94,0.00,,,0.00,0,Wunderground v.1.15,2013-11-02 01:59:00,
2013-11-02 02:29:00,38.9,37.3,29.52,South,186,5.0,5.0,94,0.00,,,0.00,0,Wunderground v.1.15,2013-11-02 02:29:00,
2013-11-02 02:59:00,40.0,38.1,29.49,South,171,8.0,9.0,93,0.00,,,0.00,0,Wunderground v.1.15,2013-11-02 02:59:00,
2013-11-02 03:28:00,40.3,37.3,29.48,South,174,7.0,8.0,89,0.00,,,0.00,0,Wunderground v.1.15,2013-11-02 03:28:00,
2013-11-02 03:59:00,41.0,37.1,29.45,South,183,8.0,8.0,86,0.00,,,0.00,0,Wunderground v.1.15,2013-11-02 03:59:00,
2013-11-02 04:28:00,40.8,36.9,29.43,South,186,9.0,11.0,86,0.00,,,0.00,0,Wunderground v.1.15,2013-11-02 04:28:00,
2013-11-02 04:59:00,42.0,37.5,29.40,South,177,9.0,9.0,84,0.00,,,0.00,0,Wunderground v.1.15,2013-11-02 04:59:00,
2013-11-02 05:28:00,42.7,38.2,29.36,SSE,157,12.0,14.0,84,0.00,,,0.00,0,Wunderground v.1.15,2013-11-02 05:28:00,
2013-11-02 05:59:00,43.0,39.1,29.33,South,182,13.0,13.0,86,0.00,,,0.00,0,Wunderground v.1.15,2013-11-02 05:59:00,
2013-11-02 06:29:00,44.0,40.7,29.30,SSE,167,11.0,11.0,88,0.00,,,0.00,0,Wunderground v.1.15,2013-11-02 06:29:00,
2013-11-02 06:59:00,44.6,41.8,29.24,SSE,163,14.0,21.0,90,0.00,,,0.02,0,Wunderground v.1.15,2013-11-02 06:59:00,
2013-11-02 07:28:00,45.9,43.1,29.22,South,185,14.0,18.0,90,0.00,,,0.02,0,Wunderground v.1.15,2013-11-02 07:28:00,
2013-11-02 07:59:00,47.0,43.3,29.18,South,191,17.0,18.0,87,0.00,,,0.02,9,Wunderground v.1.15,2013-11-02 07:59:00,
2013-11-02 08:28:00,47.6,43.9,29.16,SSW,194,20.0,20.0,87,0.00,,,0.03,25,Wunderground v.1.15,2013-11-02 08:28:00,
2013-11-02 08:59:00,47.8,44.4,29.14,SSW,193,17.0,17.0,88,0.00,,,0.03,74,Wunderground v.1.15,2013-11-02 08:59:00,
2013-11-02 09:29:00,49.0,44.1,29.10,SW,214,14.0,15.0,83,0.00,,,0.03,40,Wunderground v.1.15,2013-11-02 09:29:00,
2013-11-02 09:59:00,50.2,44.3,29.07,SSW,207,17.0,17.0,80,0.00,,,0.03,51,Wunderground v.1.15,2013-11-02 09:59:00,
2013-11-02 10:28:00,50.5,43.2,29.03,SSW,207,20.0,32.0,76,0.00,,,0.03,63,Wunderground v.1.15,2013-11-02 10:28:00,
2013-11-02 10:59:00,49.7,43.1,29.00,South,178,19.0,20.0,78,0.00,,,0.03,86,Wunderground v.1.15,2013-11-02 10:59:00,
2013-11-02 11:28:00,49.2,43.9,28.97,SSW,209,18.0,25.0,82,0.00,,,0.03,83,Wunderground v.1.15,2013-11-02 11:28:00,
2013-11-02 11:59:00,49.2,44.6,28.95,WSW,253,20.0,21.0,84,0.00,,,0.05,332,Wunderground v.1.15,2013-11-02 11:59:00,
2013-11-02 12:29:00,49.2,43.0,28.94,WSW,254,23.0,23.0,79,0.00,,,0.05,176,Wunderground v.1.15,2013-11-02 12:29:00,
2013-11-02 12:59:00,49.2,42.3,28.93,WSW,244,25.0,28.0,77,0.00,,,0.05,211,Wunderground v.1.15,2013-11-02 12:59:00,
2013-11-02 13:28:00,46.3,42.0,28.93,WSW,246,25.0,26.0,85,0.36,,,0.08,16,Wunderground v.1.15,2013-11-02 13:28:00,
2013-11-02 13:59:00,44.2,41.5,28.94,WSW,249,21.0,21.0,90,0.05,,,0.14,79,Wunderground v.1.15,2013-11-02 13:59:00,
2013-11-02 14:29:00,46.4,42.7,28.94,WSW,253,21.0,21.0,87,0.00,,,0.14,155,Wunderground v.1.15,2013-11-02 14:29:00,
2013-11-02 14:59:00,45.4,42.6,28.95,West,269,19.0,19.0,90,0.20,,,0.16,18,Wunderground v.1.15,2013-11-02 14:59:00,
2013-11-02 15:29:00,44.9,42.4,28.97,WSW,253,19.0,19.0,91,0.00,,,0.20,58,Wunderground v.1.15,2013-11-02 15:29:00,
2013-11-02 15:59:00,44.5,42.3,28.99,WNW,284,21.0,21.0,92,0.00,,,0.22,18,Wunderground v.1.15,2013-11-02 15:59:00,
2013-11-02 16:28:00,43.8,41.3,29.03,WNW,300,22.0,24.0,91,0.06,,,0.24,21,Wunderground v.1.15,2013-11-02 16:28:00,
2013-11-02 16:59:00,44.4,41.9,29.07,NW,306,23.0,23.0,91,0.00,,,0.24,0,Wunderground v.1.15,2013-11-02 16:59:00,
2013-11-02 17:29:00,44.2,41.5,29.10,West,273,20.0,20.0,90,0.00,,,0.24,0,Wunderground v.1.15,2013-11-02 17:29:00,
2013-11-02 17:59:00,44.3,40.7,29.12,NW,304,23.0,23.0,87,0.00,,,0.24,0,Wunderground v.1.15,2013-11-02 17:59:00,
2013-11-02 18:28:00,44.4,40.8,29.16,NW,316,25.0,25.0,87,0.00,,,0.24,0,Wunderground v.1.15,2013-11-02 18:28:00,
2013-11-02 18:59:00,43.8,41.1,29.20,WNW,296,20.0,20.0,90,0.00,,,0.24,0,Wunderground v.1.15,2013-11-02 18:59:00,
2013-11-02 19:28:00,43.7,40.7,29.23,WNW,302,21.0,25.0,89,0.00,,,0.24,0,Wunderground v.1.15,2013-11-02 19:28:00,
2013-11-02 19:59:00,42.8,40.1,29.26,NW,319,23.0,23.0,90,0.00,,,0.24,0,Wunderground v.1.15,2013-11-02 19:59:00,
2013-11-02 20:29:00,42.8,40.4,29.28,WNW,295,16.0,17.0,91,0.00,,,0.24,0,Wunderground v.1.15,2013-11-02 20:29:00,
2013-11-02 20:59:00,42.6,39.9,29.30,NW,307,19.0,22.0,90,0.00,,,0.24,0,Wunderground v.1.15,2013-11-02 20:59:00,
2013-11-02 21:28:00,42.2,39.2,29.32,WNW,284,17.0,20.0,89,0.00,,,0.24,0,Wunderground v.1.15,2013-11-02 21:28:00,
2013-11-02 21:59:00,41.7,38.4,29.33,WNW,285,17.0,17.0,88,0.00,,,0.24,0,Wunderground v.1.15,2013-11-02 21:59:00,
2013-11-02 22:28:00,41.2,37.6,29.35,WNW,292,16.0,16.0,87,0.00,,,0.24,0,Wunderground v.1.15,2013-11-02 22:28:00,
2013-11-02 22:59:00,41.3,37.4,29.35,WNW,292,17.0,24.0,86,0.00,,,0.24,0,Wunderground v.1.15,2013-11-02 22:59:00,
2013-11-02 23:29:00,40.9,37.0,29.35,WSW,249,16.0,17.0,86,0.00,,,0.24,0,Wunderground v.1.15,2013-11-02 23:29:00,
2013-11-02 23:59:00,40.7,36.5,29.36,West,275,16.0,16.0,85,0.00,,,0.24,0,Wunderground v.1.15,2013-11-02 23:59:00,